TimeCDT,TemperatureF,Dew PointF,Humidity,Sea Level PressureIn,VisibilityMPH,Wind Direction,Wind SpeedMPH,Gust SpeedMPH,PrecipitationIn,Events,Conditions,WindDirDegrees,DateUTC
12:13 AM,79.3,74.3,84,29.84,10.0,South,5.8,-,N/A,,Clear,170,2013-08-27 05:13:00
12:32 AM,78.8,74.3,86,29.85,10.0,South,4.6,-,N/A,,Clear,170,2013-08-27 05:32:00
12:53 AM,78.8,74.1,85,29.84,10.0,SSE,5.8,-,N/A,,Clear,150,2013-08-27 05:53:00
1:12 AM,78.3,73.9,87,29.84,10.0,South,4.6,-,N/A,,Clear,170,2013-08-27 06:12:00
1:33 AM,77.9,73.8,87,29.84,10.0,SSE,6.9,-,N/A,,Clear,150,2013-08-27 06:33:00
1:53 AM,77.9,73.8,87,29.83,10.0,South,6.9,-,N/A,,Clear,170,2013-08-27 06:53:00
2:13 AM,77.7,73.4,86,29.82,10.0,South,5.8,-,N/A,,Clear,170,2013-08-27 07:13:00
2:32 AM,77.2,73.4,88,29.81,10.0,South,4.6,-,N/A,,Clear,180,2013-08-27 07:32:00
2:53 AM,77.2,73.2,88,29.81,10.0,South,3.5,-,N/A,,Clear,190,2013-08-27 07:53:00
3:13 AM,77.0,72.9,87,29.81,10.0,South,5.8,-,N/A,,Clear,180,2013-08-27 08:13:00
3:33 AM,76.6,72.9,88,29.80,10.0,South,4.6,-,N/A,,Clear,170,2013-08-27 08:33:00
3:52 AM,76.3,72.7,89,29.81,10.0,South,5.8,-,N/A,,Clear,170,2013-08-27 08:52:00
4:13 AM,76.1,72.7,89,29.81,10.0,Calm,Calm,-,N/A,,Clear,0,2013-08-27 09:13:00
4:33 AM,75.4,72.5,91,29.81,7.0,Calm,Calm,-,N/A,,Clear,0,2013-08-27 09:33:00
4:53 AM,75.2,72.3,91,29.80,10.0,Calm,Calm,-,N/A,,Clear,0,2013-08-27 09:53:00
5:13 AM,75.2,72.3,91,29.81,10.0,Calm,Calm,-,N/A,,Clear,0,2013-08-27 10:13:00
5:32 AM,74.3,72.0,92,29.81,7.0,North,3.5,-,N/A,,Clear,10,2013-08-27 10:32:00
5:53 AM,73.8,71.8,93,29.81,5.0,Calm,Calm,-,N/A,,Clear,0,2013-08-27 10:53:00
6:12 AM,73.8,71.8,93,29.82,5.0,Calm,Calm,-,N/A,,Clear,0,2013-08-27 11:12:00
6:33 AM,72.9,71.1,94,29.82,4.0,Calm,Calm,-,N/A,,Clear,0,2013-08-27 11:33:00
6:53 AM,72.7,71.4,96,29.83,2.5,Calm,Calm,-,N/A,,Clear,0,2013-08-27 11:53:00
7:12 AM,73.4,72.0,95,29.83,2.5,Calm,Calm,-,N/A,,Clear,0,2013-08-27 12:12:00
7:33 AM,74.1,72.7,95,29.84,4.0,Calm,Calm,-,N/A,,Clear,0,2013-08-27 12:33:00
7:52 AM,74.7,72.7,94,29.84,4.0,Calm,Calm,-,N/A,,Clear,0,2013-08-27 12:52:00
8:13 AM,76.5,73.2,90,29.84,5.0,Calm,Calm,-,N/A,,Clear,0,2013-08-27 13:13:00
8:33 AM,77.9,73.4,86,29.84,7.0,Calm,Calm,-,N/A,,Clear,0,2013-08-27 13:33:00
8:53 AM,79.2,73.8,83,29.84,7.0,Calm,Calm,-,N/A,,Scattered Clouds,0,2013-08-27 13:53:00
9:13 AM,81.1,74.3,80,29.84,7.0,Calm,Calm,-,N/A,,Scattered Clouds,0,2013-08-27 14:13:00
9:32 AM,82.0,74.3,77,29.84,7.0,Calm,Calm,-,N/A,,Clear,0,2013-08-27 14:32:00
9:53 AM,82.4,74.3,76,29.84,7.0,Calm,Calm,-,N/A,,Clear,0,2013-08-27 14:53:00
10:13 AM,84.2,74.3,72,29.85,10.0,North,3.5,-,N/A,,Clear,10,2013-08-27 15:13:00
10:32 AM,84.0,74.5,73,29.85,10.0,North,4.6,-,N/A,,Scattered Clouds,350,2013-08-27 15:32:00
10:53 AM,83.7,74.7,74,29.86,10.0,North,4.6,-,N/A,,Mostly Cloudy,10,2013-08-27 15:53:00
11:12 AM,83.3,74.1,74,29.87,10.0,North,8.1,-,N/A,,Overcast,350,2013-08-27 16:12:00
11:33 AM,82.9,73.8,74,29.87,10.0,North,6.9,-,N/A,,Overcast,10,2013-08-27 16:33:00
11:52 AM,82.8,73.9,75,29.88,10.0,NNE,6.9,-,N/A,,Overcast,30,2013-08-27 16:52:00
12:13 PM,82.9,73.8,74,29.88,10.0,Calm,Calm,-,N/A,,Mostly Cloudy,0,2013-08-27 17:13:00
12:33 PM,84.9,73.8,69,29.88,10.0,NNE,5.8,-,N/A,,Mostly Cloudy,20,2013-08-27 17:33:00
12:52 PM,86.4,73.6,66,29.88,10.0,NNE,5.8,-,N/A,,Scattered Clouds,20,2013-08-27 17:52:00
1:13 PM,88.0,73.4,62,29.87,10.0,East,5.8,-,N/A,,Scattered Clouds,80,2013-08-27 18:13:00
1:33 PM,88.7,72.7,59,29.87,10.0,East,4.6,-,N/A,,Scattered Clouds,80,2013-08-27 18:33:00
1:52 PM,90.0,72.3,56,29.87,10.0,Calm,Calm,-,N/A,,Scattered Clouds,0,2013-08-27 18:52:00
2:12 PM,90.1,72.3,56,29.86,10.0,NNE,5.8,-,N/A,,Clear,20,2013-08-27 19:12:00
2:33 PM,89.8,71.8,55,29.86,10.0,Calm,Calm,-,N/A,,Clear,0,2013-08-27 19:33:00
2:53 PM,90.3,71.6,54,29.86,10.0,NNE,8.1,-,N/A,,Scattered Clouds,20,2013-08-27 19:53:00
3:13 PM,90.5,71.6,54,29.86,10.0,North,4.6,-,N/A,,Mostly Cloudy,360,2013-08-27 20:13:00
3:32 PM,90.5,71.4,53,29.85,10.0,North,5.8,-,N/A,,Scattered Clouds,360,2013-08-27 20:32:00
3:53 PM,91.9,71.1,50,29.85,10.0,NNE,5.8,-,N/A,,Scattered Clouds,20,2013-08-27 20:53:00
4:13 PM,90.5,70.9,52,29.87,10.0,North,8.1,-,N/A,,Mostly Cloudy,10,2013-08-27 21:13:00
4:32 PM,90.3,70.3,52,29.87,10.0,North,5.8,-,N/A,,Scattered Clouds,10,2013-08-27 21:32:00
4:53 PM,90.5,69.8,50,29.87,10.0,North,4.6,-,N/A,,Scattered Clouds,350,2013-08-27 21:53:00
5:12 PM,90.9,68.0,47,29.87,10.0,NNE,6.9,-,N/A,,Clear,20,2013-08-27 22:12:00
5:33 PM,90.9,66.0,44,29.88,10.0,NNW,4.6,-,N/A,,Clear,340,2013-08-27 22:33:00
5:53 PM,90.5,66.0,44,29.88,10.0,NE,4.6,-,N/A,,Clear,40,2013-08-27 22:53:00
6:13 PM,89.8,67.1,47,29.89,10.0,North,6.9,-,N/A,,Clear,10,2013-08-27 23:13:00
6:33 PM,89.4,66.9,47,29.89,10.0,NNE,5.8,-,N/A,,Clear,30,2013-08-27 23:33:00
6:52 PM,88.0,66.9,49,29.89,10.0,NNE,5.8,-,N/A,,Clear,30,2013-08-27 23:52:00
7:13 PM,87.3,67.1,51,29.89,10.0,NE,5.8,-,N/A,,Clear,40,2013-08-28 00:13:00
7:33 PM,85.6,67.6,55,29.90,10.0,NE,5.8,-,N/A,,Clear,40,2013-08-28 00:33:00
7:53 PM,83.7,68.0,59,29.91,10.0,NNE,4.6,-,N/A,,Clear,30,2013-08-28 00:53:00
8:13 PM,82.2,67.1,60,29.91,10.0,NNE,3.5,-,N/A,,Clear,30,2013-08-28 01:13:00
8:32 PM,79.9,67.3,65,29.92,10.0,Calm,Calm,-,N/A,,Clear,0,2013-08-28 01:32:00
8:53 PM,77.9,68.0,71,29.93,10.0,Calm,Calm,-,N/A,,Clear,0,2013-08-28 01:53:00
9:13 PM,77.0,68.9,76,29.93,10.0,Calm,Calm,-,N/A,,Clear,0,2013-08-28 02:13:00
9:32 PM,75.7,68.2,77,29.94,10.0,Calm,Calm,-,N/A,,Clear,0,2013-08-28 02:32:00
9:53 PM,75.4,68.4,79,29.94,10.0,NE,3.5,-,N/A,,Clear,40,2013-08-28 02:53:00
10:13 PM,75.4,68.9,80,29.94,10.0,Calm,Calm,-,N/A,,Clear,0,2013-08-28 03:13:00
10:32 PM,74.3,68.7,83,29.95,10.0,Calm,Calm,-,N/A,,Clear,0,2013-08-28 03:32:00
10:53 PM,72.7,68.0,85,29.96,10.0,Calm,Calm,-,N/A,,Clear,0,2013-08-28 03:53:00
11:13 PM,71.1,68.2,91,29.96,10.0,Calm,Calm,-,N/A,,Clear,0,2013-08-28 04:13:00
11:33 PM,70.2,66.6,88,29.96,10.0,Calm,Calm,-,N/A,,Clear,0,2013-08-28 04:33:00